sensor_id;sensor_type;location;lat;lon;timestamp;P1;durP1;ratioP1;P2;durP2;ratioP2
41556;SDS011;27720;51.992;5.890;2023-04-01T00:01:59;1.85;;;0.98;;
41556;SDS011;27720;51.992;5.890;2023-04-01T00:04:25;2.13;;;0.95;;
41556;SDS011;27720;51.992;5.890;2023-04-01T00:06:50;3.58;;;1.27;;
41556;SDS011;27720;51.992;5.890;2023-04-01T00:09:16;3.92;;;1.00;;
41556;SDS011;27720;51.992;5.890;2023-04-01T00:11:42;6.18;;;1.13;;
41556;SDS011;27720;51.992;5.890;2023-04-01T00:14:10;2.20;;;0.80;;
41556;SDS011;27720;51.992;5.890;2023-04-01T00:16:36;1.92;;;0.85;;
41556;SDS011;27720;51.992;5.890;2023-04-01T00:19:02;1.45;;;0.82;;
41556;SDS011;27720;51.992;5.890;2023-04-01T00:21:27;2.58;;;0.80;;
41556;SDS011;27720;51.992;5.890;2023-04-01T00:23:53;0.77;;;0.60;;
41556;SDS011;27720;51.992;5.890;2023-04-01T00:26:19;2.97;;;1.30;;
41556;SDS011;27720;51.992;5.890;2023-04-01T00:28:46;2.72;;;1.15;;
41556;SDS011;27720;51.992;5.890;2023-04-01T00:31:15;2.20;;;1.02;;
41556;SDS011;27720;51.992;5.890;2023-04-01T00:33:41;2.05;;;1.13;;
41556;SDS011;27720;51.992;5.890;2023-04-01T00:38:35;2.42;;;1.20;;
41556;SDS011;27720;51.992;5.890;2023-04-01T00:41:01;3.53;;;1.30;;
41556;SDS011;27720;51.992;5.890;2023-04-01T00:43:27;3.42;;;1.48;;
41556;SDS011;27720;51.992;5.890;2023-04-01T00:45:53;3.17;;;1.20;;
41556;SDS011;27720;51.992;5.890;2023-04-01T00:50:54;2.80;;;1.30;;
41556;SDS011;27720;51.992;5.890;2023-04-01T00:53:32;2.25;;;1.08;;
41556;SDS011;27720;51.992;5.890;2023-04-01T00:56:07;3.03;;;1.50;;
41556;SDS011;27720;51.992;5.890;2023-04-01T00:58:40;2.67;;;0.90;;
41556;SDS011;27720;51.992;5.890;2023-04-01T01:01:09;4.80;;;1.92;;
41556;SDS011;27720;51.992;5.890;2023-04-01T01:03:35;2.55;;;1.35;;
41556;SDS011;27720;51.992;5.890;2023-04-01T01:06:08;2.22;;;1.52;;
41556;SDS011;27720;51.992;5.890;2023-04-01T01:11:25;6.30;;;3.15;;
41556;SDS011;27720;51.992;5.890;2023-04-01T01:14:01;6.20;;;3.20;;
41556;SDS011;27720;51.992;5.890;2023-04-01T01:16:44;5.60;;;2.72;;
41556;SDS011;27720;51.992;5.890;2023-04-01T01:19:27;4.75;;;3.00;;
41556;SDS011;27720;51.992;5.890;2023-04-01T01:22:20;9.60;;;3.78;;
41556;SDS011;27720;51.992;5.890;2023-04-01T01:27:42;7.45;;;4.35;;
41556;SDS011;27720;51.992;5.890;2023-04-01T01:36:59;8.65;;;4.53;;
41556;SDS011;27720;51.992;5.890;2023-04-01T01:39:31;10.55;;;5.25;;
41556;SDS011;27720;51.992;5.890;2023-04-01T01:42:01;10.32;;;3.90;;
41556;SDS011;27720;51.992;5.890;2023-04-01T01:44:31;7.20;;;3.92;;
41556;SDS011;27720;51.992;5.890;2023-04-01T01:46:59;8.35;;;3.75;;
41556;SDS011;27720;51.992;5.890;2023-04-01T01:49:26;6.43;;;4.18;;
41556;SDS011;27720;51.992;5.890;2023-04-01T01:51:55;8.32;;;3.63;;
41556;SDS011;27720;51.992;5.890;2023-04-01T01:54:22;7.93;;;3.80;;
41556;SDS011;27720;51.992;5.890;2023-04-01T01:56:49;6.13;;;3.13;;
41556;SDS011;27720;51.992;5.890;2023-04-01T01:59:22;7.93;;;3.47;;
41556;SDS011;27720;51.992;5.890;2023-04-01T02:01:50;9.52;;;3.78;;
41556;SDS011;27720;51.992;5.890;2023-04-01T02:04:19;9.77;;;4.20;;
41556;SDS011;27720;51.992;5.890;2023-04-01T02:06:49;10.52;;;4.80;;
41556;SDS011;27720;51.992;5.890;2023-04-01T02:09:27;12.10;;;3.50;;
41556;SDS011;27720;51.992;5.890;2023-04-01T02:11:56;7.20;;;3.17;;
41556;SDS011;27720;51.992;5.890;2023-04-01T02:17:26;14.35;;;4.85;;
41556;SDS011;27720;51.992;5.890;2023-04-01T02:19:56;12.38;;;4.07;;
41556;SDS011;27720;51.992;5.890;2023-04-01T02:22:31;8.32;;;3.40;;
41556;SDS011;27720;51.992;5.890;2023-04-01T02:25:07;13.00;;;3.35;;
41556;SDS011;27720;51.992;5.890;2023-04-01T02:27:35;11.52;;;2.92;;
41556;SDS011;27720;51.992;5.890;2023-04-01T02:30:02;8.13;;;3.00;;
41556;SDS011;27720;51.992;5.890;2023-04-01T02:32:29;10.82;;;2.75;;
41556;SDS011;27720;51.992;5.890;2023-04-01T02:34:58;5.88;;;2.25;;
41556;SDS011;27720;51.992;5.890;2023-04-01T02:37:28;5.95;;;2.03;;
41556;SDS011;27720;51.992;5.890;2023-04-01T02:39:54;6.40;;;2.65;;
41556;SDS011;27720;51.992;5.890;2023-04-01T02:42:26;7.88;;;2.38;;
41556;SDS011;27720;51.992;5.890;2023-04-01T02:44:52;4.93;;;2.38;;
41556;SDS011;27720;51.992;5.890;2023-04-01T02:47:18;4.93;;;2.40;;
41556;SDS011;27720;51.992;5.890;2023-04-01T02:49:44;8.80;;;3.38;;
41556;SDS011;27720;51.992;5.890;2023-04-01T02:52:10;9.00;;;2.83;;
41556;SDS011;27720;51.992;5.890;2023-04-01T02:54:36;6.35;;;2.20;;
41556;SDS011;27720;51.992;5.890;2023-04-01T02:57:02;6.35;;;2.67;;
41556;SDS011;27720;51.992;5.890;2023-04-01T02:59:28;4.82;;;2.22;;
41556;SDS011;27720;51.992;5.890;2023-04-01T03:01:53;4.93;;;1.73;;
41556;SDS011;27720;51.992;5.890;2023-04-01T03:04:19;5.45;;;1.55;;
41556;SDS011;27720;51.992;5.890;2023-04-01T03:06:45;4.43;;;1.65;;
41556;SDS011;27720;51.992;5.890;2023-04-01T03:09:11;2.80;;;1.38;;
41556;SDS011;27720;51.992;5.890;2023-04-01T03:11:36;4.57;;;1.85;;
41556;SDS011;27720;51.992;5.890;2023-04-01T03:14:02;6.82;;;2.10;;
41556;SDS011;27720;51.992;5.890;2023-04-01T03:16:28;4.25;;;1.80;;
41556;SDS011;27720;51.992;5.890;2023-04-01T03:18:53;6.30;;;1.92;;
41556;SDS011;27720;51.992;5.890;2023-04-01T03:21:23;6.25;;;1.58;;
41556;SDS011;27720;51.992;5.890;2023-04-01T03:23:52;2.95;;;1.38;;
41556;SDS011;27720;51.992;5.890;2023-04-01T03:26:18;3.00;;;1.30;;
41556;SDS011;27720;51.992;5.890;2023-04-01T03:28:44;3.92;;;1.85;;
41556;SDS011;27720;51.992;5.890;2023-04-01T03:31:10;3.38;;;1.70;;
41556;SDS011;27720;51.992;5.890;2023-04-01T03:33:42;3.90;;;2.00;;
41556;SDS011;27720;51.992;5.890;2023-04-01T03:36:08;3.85;;;1.70;;
41556;SDS011;27720;51.992;5.890;2023-04-01T03:38:34;5.00;;;1.90;;
41556;SDS011;27720;51.992;5.890;2023-04-01T03:41:00;4.38;;;2.10;;
41556;SDS011;27720;51.992;5.890;2023-04-01T03:43:27;5.10;;;1.83;;
41556;SDS011;27720;51.992;5.890;2023-04-01T03:45:52;5.40;;;2.22;;
41556;SDS011;27720;51.992;5.890;2023-04-01T03:50:49;4.60;;;2.08;;
41556;SDS011;27720;51.992;5.890;2023-04-01T03:53:15;6.03;;;2.70;;
41556;SDS011;27720;51.992;5.890;2023-04-01T03:55:43;7.47;;;2.67;;
41556;SDS011;27720;51.992;5.890;2023-04-01T03:58:08;6.85;;;2.58;;
41556;SDS011;27720;51.992;5.890;2023-04-01T04:00:34;5.95;;;3.13;;
41556;SDS011;27720;51.992;5.890;2023-04-01T04:03:01;5.95;;;2.60;;
41556;SDS011;27720;51.992;5.890;2023-04-01T04:05:34;5.13;;;2.70;;
41556;SDS011;27720;51.992;5.890;2023-04-01T04:08:00;6.50;;;3.10;;
41556;SDS011;27720;51.992;5.890;2023-04-01T04:10:26;6.50;;;3.17;;
41556;SDS011;27720;51.992;5.890;2023-04-01T04:12:52;6.22;;;2.72;;
41556;SDS011;27720;51.992;5.890;2023-04-01T04:15:20;5.53;;;2.72;;
41556;SDS011;27720;51.992;5.890;2023-04-01T04:17:45;5.47;;;2.58;;
41556;SDS011;27720;51.992;5.890;2023-04-01T04:20:13;5.72;;;2.67;;
41556;SDS011;27720;51.992;5.890;2023-04-01T04:22:39;6.18;;;2.28;;
41556;SDS011;27720;51.992;5.890;2023-04-01T04:25:07;4.63;;;2.60;;
41556;SDS011;27720;51.992;5.890;2023-04-01T04:27:34;6.28;;;2.63;;
41556;SDS011;27720;51.992;5.890;2023-04-01T04:30:09;4.57;;;2.40;;
41556;SDS011;27720;51.992;5.890;2023-04-01T04:32:35;6.00;;;2.55;;
41556;SDS011;27720;51.992;5.890;2023-04-01T04:35:02;5.75;;;2.80;;
41556;SDS011;27720;51.992;5.890;2023-04-01T04:37:28;4.85;;;2.42;;
41556;SDS011;27720;51.992;5.890;2023-04-01T04:39:54;6.57;;;2.95;;
41556;SDS011;27720;51.992;5.890;2023-04-01T04:42:22;4.30;;;2.45;;
41556;SDS011;27720;51.992;5.890;2023-04-01T04:44:53;4.40;;;2.10;;
41556;SDS011;27720;51.992;5.890;2023-04-01T04:47:18;5.93;;;2.80;;
41556;SDS011;27720;51.992;5.890;2023-04-01T04:49:44;5.57;;;2.60;;
41556;SDS011;27720;51.992;5.890;2023-04-01T04:52:10;5.00;;;2.55;;
41556;SDS011;27720;51.992;5.890;2023-04-01T04:54:36;7.72;;;3.17;;
41556;SDS011;27720;51.992;5.890;2023-04-01T04:57:03;4.70;;;2.72;;
41556;SDS011;27720;51.992;5.890;2023-04-01T04:59:33;3.72;;;2.13;;
41556;SDS011;27720;51.992;5.890;2023-04-01T05:02:04;4.95;;;2.53;;
41556;SDS011;27720;51.992;5.890;2023-04-01T05:04:33;5.38;;;2.58;;
41556;SDS011;27720;51.992;5.890;2023-04-01T05:07:00;4.18;;;2.28;;
41556;SDS011;27720;51.992;5.890;2023-04-01T05:09:26;4.20;;;2.55;;
41556;SDS011;27720;51.992;5.890;2023-04-01T05:11:52;3.22;;;2.20;;
41556;SDS011;27720;51.992;5.890;2023-04-01T05:14:19;4.97;;;2.20;;
41556;SDS011;27720;51.992;5.890;2023-04-01T05:16:54;3.38;;;1.90;;
41556;SDS011;27720;51.992;5.890;2023-04-01T05:19:19;4.70;;;2.35;;
41556;SDS011;27720;51.992;5.890;2023-04-01T05:21:45;3.47;;;1.50;;
41556;SDS011;27720;51.992;5.890;2023-04-01T05:24:11;3.08;;;1.73;;
41556;SDS011;27720;51.992;5.890;2023-04-01T05:26:38;2.90;;;1.60;;
41556;SDS011;27720;51.992;5.890;2023-04-01T05:29:04;3.03;;;1.63;;
41556;SDS011;27720;51.992;5.890;2023-04-01T05:31:31;2.25;;;1.38;;
41556;SDS011;27720;51.992;5.890;2023-04-01T05:33:57;3.83;;;1.80;;
41556;SDS011;27720;51.992;5.890;2023-04-01T05:36:23;2.10;;;1.15;;
41556;SDS011;27720;51.992;5.890;2023-04-01T05:38:50;2.13;;;1.20;;
41556;SDS011;27720;51.992;5.890;2023-04-01T05:41:18;2.05;;;1.30;;
41556;SDS011;27720;51.992;5.890;2023-04-01T05:43:45;2.47;;;1.15;;
41556;SDS011;27720;51.992;5.890;2023-04-01T05:46:29;2.85;;;1.27;;
41556;SDS011;27720;51.992;5.890;2023-04-01T05:49:02;2.42;;;1.27;;
41556;SDS011;27720;51.992;5.890;2023-04-01T05:51:28;2.95;;;1.58;;
41556;SDS011;27720;51.992;5.890;2023-04-01T05:53:53;2.97;;;1.27;;
41556;SDS011;27720;51.992;5.890;2023-04-01T05:56:19;3.92;;;1.90;;
41556;SDS011;27720;51.992;5.890;2023-04-01T05:58:50;2.42;;;1.25;;
41556;SDS011;27720;51.992;5.890;2023-04-01T06:01:17;2.63;;;1.48;;
41556;SDS011;27720;51.992;5.890;2023-04-01T06:03:44;6.35;;;2.50;;
41556;SDS011;27720;51.992;5.890;2023-04-01T06:06:14;5.13;;;2.33;;
41556;SDS011;27720;51.992;5.890;2023-04-01T06:08:43;9.40;;;3.25;;
41556;SDS011;27720;51.992;5.890;2023-04-01T06:11:22;7.28;;;2.92;;
41556;SDS011;27720;51.992;5.890;2023-04-01T06:30:47;10.77;;;3.38;;
41556;SDS011;27720;51.992;5.890;2023-04-01T06:39:38;7.85;;;2.72;;
41556;SDS011;27720;51.992;5.890;2023-04-01T06:42:45;8.52;;;2.67;;
41556;SDS011;27720;51.992;5.890;2023-04-01T06:48:47;8.52;;;2.67;;
41556;SDS011;27720;51.992;5.890;2023-04-01T06:54:42;6.35;;;2.60;;
41556;SDS011;27720;51.992;5.890;2023-04-01T06:57:34;5.18;;;2.00;;
41556;SDS011;27720;51.992;5.890;2023-04-01T07:00:12;6.70;;;1.90;;
41556;SDS011;27720;51.992;5.890;2023-04-01T07:02:49;8.60;;;1.77;;
41556;SDS011;27720;51.992;5.890;2023-04-01T07:05:34;3.50;;;1.17;;
41556;SDS011;27720;51.992;5.890;2023-04-01T07:08:06;3.97;;;1.85;;
41556;SDS011;27720;51.992;5.890;2023-04-01T07:13:52;2.05;;;1.20;;
41556;SDS011;27720;51.992;5.890;2023-04-01T07:16:39;3.33;;;1.10;;
41556;SDS011;27720;51.992;5.890;2023-04-01T07:19:18;2.63;;;0.95;;
41556;SDS011;27720;51.992;5.890;2023-04-01T07:22:45;1.67;;;0.65;;
41556;SDS011;27720;51.992;5.890;2023-04-01T07:25:02;2.00;;;0.75;;
41556;SDS011;27720;51.992;5.890;2023-04-01T07:27:36;1.25;;;0.60;;
41556;SDS011;27720;51.992;5.890;2023-04-01T07:30:03;1.50;;;0.80;;
41556;SDS011;27720;51.992;5.890;2023-04-01T07:32:51;2.63;;;0.90;;
41556;SDS011;27720;51.992;5.890;2023-04-01T07:35:45;1.13;;;0.55;;
41556;SDS011;27720;51.992;5.890;2023-04-01T07:56:55;1.38;;;0.50;;
41556;SDS011;27720;51.992;5.890;2023-04-01T08:10:57;1.73;;;0.73;;
41556;SDS011;27720;51.992;5.890;2023-04-01T08:14:27;1.00;;;0.70;;
41556;SDS011;27720;51.992;5.890;2023-04-01T08:17:11;3.53;;;1.23;;
41556;SDS011;27720;51.992;5.890;2023-04-01T08:20:11;2.58;;;1.00;;
41556;SDS011;27720;51.992;5.890;2023-04-01T08:22:50;2.58;;;0.88;;
41556;SDS011;27720;51.992;5.890;2023-04-01T08:25:28;1.13;;;0.52;;
41556;SDS011;27720;51.992;5.890;2023-04-01T08:28:15;1.05;;;0.43;;
41556;SDS011;27720;51.992;5.890;2023-04-01T08:31:11;1.15;;;0.55;;
41556;SDS011;27720;51.992;5.890;2023-04-01T08:33:43;0.60;;;0.40;;
41556;SDS011;27720;51.992;5.890;2023-04-01T08:36:17;1.63;;;0.47;;
41556;SDS011;27720;51.992;5.890;2023-04-01T08:39:05;0.40;;;0.40;;
41556;SDS011;27720;51.992;5.890;2023-04-01T08:48:07;1.95;;;0.40;;
41556;SDS011;27720;51.992;5.890;2023-04-01T08:50:50;0.40;;;0.40;;
41556;SDS011;27720;51.992;5.890;2023-04-01T09:16:58;2.00;;;0.60;;
41556;SDS011;27720;51.992;5.890;2023-04-01T09:22:25;1.25;;;0.45;;
41556;SDS011;27720;51.992;5.890;2023-04-01T09:27:54;2.80;;;0.77;;
41556;SDS011;27720;51.992;5.890;2023-04-01T09:33:40;1.67;;;0.52;;
41556;SDS011;27720;51.992;5.890;2023-04-01T09:36:45;2.88;;;0.75;;
41556;SDS011;27720;51.992;5.890;2023-04-01T09:45:09;2.58;;;1.10;;
41556;SDS011;27720;51.992;5.890;2023-04-01T09:48:14;1.25;;;0.50;;
41556;SDS011;27720;51.992;5.890;2023-04-01T09:53:57;3.22;;;0.70;;
41556;SDS011;27720;51.992;5.890;2023-04-01T10:25:46;2.20;;;1.02;;
41556;SDS011;27720;51.992;5.890;2023-04-01T10:28:45;2.55;;;1.20;;
41556;SDS011;27720;51.992;5.890;2023-04-01T10:31:43;3.05;;;1.20;;
41556;SDS011;27720;51.992;5.890;2023-04-01T10:40:53;2.80;;;1.10;;
41556;SDS011;27720;51.992;5.890;2023-04-01T10:46:38;4.20;;;1.10;;
41556;SDS011;27720;51.992;5.890;2023-04-01T10:55:17;3.67;;;1.70;;
41556;SDS011;27720;51.992;5.890;2023-04-01T10:58:27;3.70;;;1.67;;
41556;SDS011;27720;51.992;5.890;2023-04-01T11:13:58;3.38;;;1.58;;
41556;SDS011;27720;51.992;5.890;2023-04-01T11:19:31;6.10;;;2.38;;
41556;SDS011;27720;51.992;5.890;2023-04-01T11:31:37;2.00;;;0.88;;
41556;SDS011;27720;51.992;5.890;2023-04-01T11:37:29;1.20;;;0.70;;
41556;SDS011;27720;51.992;5.890;2023-04-01T11:43:42;0.80;;;0.47;;
41556;SDS011;27720;51.992;5.890;2023-04-01T11:46:42;0.68;;;0.50;;
41556;SDS011;27720;51.992;5.890;2023-04-01T12:06:25;1.17;;;0.60;;
41556;SDS011;27720;51.992;5.890;2023-04-01T12:17:54;1.40;;;0.63;;
41556;SDS011;27720;51.992;5.890;2023-04-01T12:20:36;1.23;;;0.63;;
41556;SDS011;27720;51.992;5.890;2023-04-01T12:23:21;1.58;;;0.60;;
41556;SDS011;27720;51.992;5.890;2023-04-01T12:31:35;1.02;;;0.55;;
41556;SDS011;27720;51.992;5.890;2023-04-01T12:34:41;1.02;;;0.60;;
41556;SDS011;27720;51.992;5.890;2023-04-01T12:52:00;1.52;;;0.75;;
41556;SDS011;27720;51.992;5.890;2023-04-01T12:57:18;1.85;;;1.00;;
41556;SDS011;27720;51.992;5.890;2023-04-01T13:00:30;1.35;;;0.80;;
41556;SDS011;27720;51.992;5.890;2023-04-01T13:06:47;1.75;;;0.80;;
